sensor_id;sensor_type;location;lat;lon;timestamp;P1;durP1;ratioP1;P2;durP2;ratioP2
59756;SDS011;45631;51.962;5.974;2023-09-19T00:01:04;7.03;;;1.73;;
59756;SDS011;45631;51.962;5.974;2023-09-19T00:03:34;8.18;;;1.98;;
59756;SDS011;45631;51.962;5.974;2023-09-19T00:06:04;5.55;;;1.77;;
59756;SDS011;45631;51.962;5.974;2023-09-19T00:08:34;9.63;;;1.90;;
59756;SDS011;45631;51.962;5.974;2023-09-19T00:11:02;8.05;;;2.28;;
59756;SDS011;45631;51.962;5.974;2023-09-19T00:13:31;8.10;;;2.28;;
59756;SDS011;45631;51.962;5.974;2023-09-19T00:16:00;10.18;;;2.20;;
59756;SDS011;45631;51.962;5.974;2023-09-19T00:18:29;9.52;;;2.30;;
59756;SDS011;45631;51.962;5.974;2023-09-19T00:20:59;10.63;;;2.35;;
59756;SDS011;45631;51.962;5.974;2023-09-19T00:23:27;11.70;;;2.53;;
59756;SDS011;45631;51.962;5.974;2023-09-19T00:25:58;16.95;;;4.60;;
59756;SDS011;45631;51.962;5.974;2023-09-19T00:28:27;11.48;;;2.33;;
59756;SDS011;45631;51.962;5.974;2023-09-19T00:30:58;13.45;;;2.67;;
59756;SDS011;45631;51.962;5.974;2023-09-19T00:33:30;15.75;;;3.60;;
59756;SDS011;45631;51.962;5.974;2023-09-19T00:35:58;11.32;;;2.30;;
59756;SDS011;45631;51.962;5.974;2023-09-19T00:38:28;9.57;;;2.33;;
59756;SDS011;45631;51.962;5.974;2023-09-19T00:40:57;9.50;;;1.85;;
59756;SDS011;45631;51.962;5.974;2023-09-19T00:43:26;9.73;;;2.28;;
59756;SDS011;45631;51.962;5.974;2023-09-19T00:45:56;10.57;;;2.28;;
59756;SDS011;45631;51.962;5.974;2023-09-19T00:48:27;8.60;;;2.00;;
59756;SDS011;45631;51.962;5.974;2023-09-19T00:50:58;11.10;;;1.80;;
59756;SDS011;45631;51.962;5.974;2023-09-19T00:53:31;8.63;;;1.80;;
59756;SDS011;45631;51.962;5.974;2023-09-19T00:56:00;11.32;;;2.33;;
59756;SDS011;45631;51.962;5.974;2023-09-19T00:58:31;8.15;;;1.98;;
59756;SDS011;45631;51.962;5.974;2023-09-19T01:01:01;9.70;;;2.22;;
59756;SDS011;45631;51.962;5.974;2023-09-19T01:03:33;9.25;;;2.17;;
59756;SDS011;45631;51.962;5.974;2023-09-19T01:06:04;9.00;;;2.40;;
59756;SDS011;45631;51.962;5.974;2023-09-19T01:08:32;7.65;;;1.98;;
59756;SDS011;45631;51.962;5.974;2023-09-19T01:11:03;12.93;;;2.75;;
59756;SDS011;45631;51.962;5.974;2023-09-19T01:13:46;9.52;;;2.90;;
59756;SDS011;45631;51.962;5.974;2023-09-19T01:16:22;9.60;;;2.53;;
59756;SDS011;45631;51.962;5.974;2023-09-19T01:19:03;11.20;;;2.42;;
59756;SDS011;45631;51.962;5.974;2023-09-19T01:21:42;10.65;;;2.50;;
59756;SDS011;45631;51.962;5.974;2023-09-19T01:24:22;9.73;;;2.78;;
59756;SDS011;45631;51.962;5.974;2023-09-19T01:27:34;14.75;;;2.80;;
59756;SDS011;45631;51.962;5.974;2023-09-19T01:30:23;9.15;;;2.78;;
59756;SDS011;45631;51.962;5.974;2023-09-19T01:32:55;13.73;;;3.35;;
59756;SDS011;45631;51.962;5.974;2023-09-19T01:35:26;14.20;;;2.65;;
59756;SDS011;45631;51.962;5.974;2023-09-19T01:37:54;14.45;;;2.88;;
59756;SDS011;45631;51.962;5.974;2023-09-19T01:40:22;9.80;;;2.65;;
59756;SDS011;45631;51.962;5.974;2023-09-19T01:42:53;13.18;;;2.92;;
59756;SDS011;45631;51.962;5.974;2023-09-19T01:45:30;15.57;;;2.58;;
59756;SDS011;45631;51.962;5.974;2023-09-19T01:48:10;9.95;;;2.20;;
59756;SDS011;45631;51.962;5.974;2023-09-19T01:50:49;11.88;;;2.55;;
59756;SDS011;45631;51.962;5.974;2023-09-19T01:53:27;13.55;;;3.95;;
59756;SDS011;45631;51.962;5.974;2023-09-19T01:56:01;10.43;;;2.25;;
59756;SDS011;45631;51.962;5.974;2023-09-19T01:58:34;9.98;;;2.15;;
59756;SDS011;45631;51.962;5.974;2023-09-19T02:01:11;11.13;;;2.30;;
59756;SDS011;45631;51.962;5.974;2023-09-19T02:03:43;10.45;;;2.65;;
59756;SDS011;45631;51.962;5.974;2023-09-19T02:06:13;11.32;;;2.58;;
59756;SDS011;45631;51.962;5.974;2023-09-19T02:08:42;11.98;;;2.80;;
59756;SDS011;45631;51.962;5.974;2023-09-19T02:11:11;8.70;;;2.45;;
59756;SDS011;45631;51.962;5.974;2023-09-19T02:13:39;11.05;;;2.22;;
59756;SDS011;45631;51.962;5.974;2023-09-19T02:16:10;9.52;;;2.30;;
59756;SDS011;45631;51.962;5.974;2023-09-19T02:18:39;12.50;;;2.55;;
59756;SDS011;45631;51.962;5.974;2023-09-19T02:21:07;13.55;;;2.70;;
59756;SDS011;45631;51.962;5.974;2023-09-19T02:23:36;9.10;;;2.38;;
59756;SDS011;45631;51.962;5.974;2023-09-19T02:26:05;10.70;;;2.50;;
59756;SDS011;45631;51.962;5.974;2023-09-19T02:28:33;6.18;;;2.05;;
59756;SDS011;45631;51.962;5.974;2023-09-19T02:31:02;11.80;;;2.40;;
59756;SDS011;45631;51.962;5.974;2023-09-19T02:33:33;16.15;;;2.50;;
59756;SDS011;45631;51.962;5.974;2023-09-19T02:36:02;16.17;;;2.83;;
59756;SDS011;45631;51.962;5.974;2023-09-19T02:38:32;9.70;;;2.35;;
59756;SDS011;45631;51.962;5.974;2023-09-19T02:41:00;11.02;;;2.60;;
59756;SDS011;45631;51.962;5.974;2023-09-19T02:43:28;12.63;;;2.33;;
59756;SDS011;45631;51.962;5.974;2023-09-19T02:45:56;13.88;;;2.63;;
59756;SDS011;45631;51.962;5.974;2023-09-19T02:48:25;18.13;;;3.38;;
59756;SDS011;45631;51.962;5.974;2023-09-19T02:50:54;10.85;;;2.35;;
59756;SDS011;45631;51.962;5.974;2023-09-19T02:53:23;11.15;;;2.40;;
59756;SDS011;45631;51.962;5.974;2023-09-19T02:55:54;12.88;;;2.78;;
59756;SDS011;45631;51.962;5.974;2023-09-19T02:58:22;13.00;;;2.08;;
59756;SDS011;45631;51.962;5.974;2023-09-19T03:00:51;9.93;;;2.40;;
59756;SDS011;45631;51.962;5.974;2023-09-19T03:03:21;12.20;;;2.67;;
59756;SDS011;45631;51.962;5.974;2023-09-19T03:05:50;14.88;;;2.38;;
59756;SDS011;45631;51.962;5.974;2023-09-19T03:08:22;12.18;;;2.65;;
59756;SDS011;45631;51.962;5.974;2023-09-19T03:10:51;8.40;;;1.95;;
59756;SDS011;45631;51.962;5.974;2023-09-19T03:13:19;11.88;;;2.30;;
59756;SDS011;45631;51.962;5.974;2023-09-19T03:15:48;12.65;;;2.70;;
59756;SDS011;45631;51.962;5.974;2023-09-19T03:18:17;9.60;;;2.30;;
59756;SDS011;45631;51.962;5.974;2023-09-19T03:20:52;11.52;;;2.60;;
59756;SDS011;45631;51.962;5.974;2023-09-19T03:23:22;14.55;;;3.55;;
59756;SDS011;45631;51.962;5.974;2023-09-19T03:25:52;12.80;;;2.60;;
59756;SDS011;45631;51.962;5.974;2023-09-19T03:28:21;11.52;;;2.15;;
59756;SDS011;45631;51.962;5.974;2023-09-19T03:30:57;11.10;;;2.38;;
59756;SDS011;45631;51.962;5.974;2023-09-19T03:33:27;11.02;;;2.28;;
59756;SDS011;45631;51.962;5.974;2023-09-19T03:35:58;10.30;;;2.38;;
59756;SDS011;45631;51.962;5.974;2023-09-19T03:38:28;10.00;;;2.45;;
59756;SDS011;45631;51.962;5.974;2023-09-19T03:40:56;9.25;;;2.03;;
59756;SDS011;45631;51.962;5.974;2023-09-19T03:43:25;14.07;;;2.45;;
59756;SDS011;45631;51.962;5.974;2023-09-19T03:45:53;10.15;;;2.17;;
59756;SDS011;45631;51.962;5.974;2023-09-19T03:48:21;9.57;;;2.28;;
59756;SDS011;45631;51.962;5.974;2023-09-19T03:50:50;12.82;;;2.20;;
59756;SDS011;45631;51.962;5.974;2023-09-19T03:53:19;11.10;;;2.45;;
59756;SDS011;45631;51.962;5.974;2023-09-19T03:55:48;14.50;;;2.22;;
59756;SDS011;45631;51.962;5.974;2023-09-19T03:58:16;10.45;;;2.10;;
59756;SDS011;45631;51.962;5.974;2023-09-19T04:00:45;13.27;;;2.47;;
59756;SDS011;45631;51.962;5.974;2023-09-19T04:03:16;11.63;;;2.45;;
59756;SDS011;45631;51.962;5.974;2023-09-19T04:05:47;12.30;;;2.30;;
59756;SDS011;45631;51.962;5.974;2023-09-19T04:08:16;11.20;;;2.03;;
59756;SDS011;45631;51.962;5.974;2023-09-19T04:10:44;10.98;;;2.50;;
59756;SDS011;45631;51.962;5.974;2023-09-19T04:13:13;13.20;;;2.03;;
59756;SDS011;45631;51.962;5.974;2023-09-19T04:15:42;10.20;;;2.28;;
59756;SDS011;45631;51.962;5.974;2023-09-19T04:18:10;8.50;;;2.20;;
59756;SDS011;45631;51.962;5.974;2023-09-19T04:20:38;15.50;;;2.33;;
59756;SDS011;45631;51.962;5.974;2023-09-19T04:23:07;10.45;;;2.15;;
59756;SDS011;45631;51.962;5.974;2023-09-19T04:25:38;11.25;;;2.30;;
59756;SDS011;45631;51.962;5.974;2023-09-19T04:28:08;12.35;;;3.65;;
59756;SDS011;45631;51.962;5.974;2023-09-19T04:30:38;9.52;;;2.33;;
59756;SDS011;45631;51.962;5.974;2023-09-19T04:33:07;13.73;;;2.45;;
59756;SDS011;45631;51.962;5.974;2023-09-19T04:35:35;12.23;;;2.20;;
59756;SDS011;45631;51.962;5.974;2023-09-19T04:38:05;8.43;;;2.15;;
59756;SDS011;45631;51.962;5.974;2023-09-19T04:40:33;12.18;;;2.53;;
59756;SDS011;45631;51.962;5.974;2023-09-19T04:43:02;13.73;;;2.53;;
59756;SDS011;45631;51.962;5.974;2023-09-19T04:45:30;6.32;;;1.85;;
59756;SDS011;45631;51.962;5.974;2023-09-19T04:48:00;9.10;;;2.13;;
59756;SDS011;45631;51.962;5.974;2023-09-19T04:50:29;12.77;;;2.22;;
59756;SDS011;45631;51.962;5.974;2023-09-19T04:52:57;8.63;;;2.22;;
59756;SDS011;45631;51.962;5.974;2023-09-19T04:55:27;8.93;;;1.85;;
59756;SDS011;45631;51.962;5.974;2023-09-19T04:57:57;11.88;;;1.92;;
59756;SDS011;45631;51.962;5.974;2023-09-19T05:00:28;8.85;;;1.90;;
59756;SDS011;45631;51.962;5.974;2023-09-19T05:02:57;8.95;;;1.90;;
59756;SDS011;45631;51.962;5.974;2023-09-19T05:05:29;8.55;;;1.95;;
59756;SDS011;45631;51.962;5.974;2023-09-19T05:07:57;9.35;;;2.10;;
59756;SDS011;45631;51.962;5.974;2023-09-19T05:10:31;10.63;;;1.83;;
59756;SDS011;45631;51.962;5.974;2023-09-19T05:13:03;9.60;;;2.30;;
59756;SDS011;45631;51.962;5.974;2023-09-19T05:15:31;9.50;;;2.10;;
59756;SDS011;45631;51.962;5.974;2023-09-19T05:17:59;10.90;;;2.20;;
59756;SDS011;45631;51.962;5.974;2023-09-19T05:20:29;13.50;;;3.00;;
59756;SDS011;45631;51.962;5.974;2023-09-19T05:22:59;10.07;;;2.28;;
59756;SDS011;45631;51.962;5.974;2023-09-19T05:25:29;12.10;;;2.03;;
59756;SDS011;45631;51.962;5.974;2023-09-19T05:27:59;8.95;;;2.40;;
59756;SDS011;45631;51.962;5.974;2023-09-19T05:30:30;6.13;;;1.80;;
59756;SDS011;45631;51.962;5.974;2023-09-19T05:32:59;10.60;;;2.25;;
59756;SDS011;45631;51.962;5.974;2023-09-19T05:35:30;6.50;;;1.75;;
59756;SDS011;45631;51.962;5.974;2023-09-19T05:37:59;11.35;;;2.15;;
59756;SDS011;45631;51.962;5.974;2023-09-19T05:40:27;10.45;;;1.90;;
59756;SDS011;45631;51.962;5.974;2023-09-19T05:42:55;11.65;;;1.90;;
59756;SDS011;45631;51.962;5.974;2023-09-19T05:45:24;9.15;;;2.10;;
59756;SDS011;45631;51.962;5.974;2023-09-19T05:47:52;15.80;;;2.72;;
59756;SDS011;45631;51.962;5.974;2023-09-19T05:50:22;9.05;;;2.17;;
59756;SDS011;45631;51.962;5.974;2023-09-19T05:52:55;12.07;;;2.53;;
59756;SDS011;45631;51.962;5.974;2023-09-19T05:55:25;9.43;;;2.15;;
59756;SDS011;45631;51.962;5.974;2023-09-19T05:57:55;10.70;;;2.25;;
59756;SDS011;45631;51.962;5.974;2023-09-19T06:00:23;14.30;;;2.65;;
59756;SDS011;45631;51.962;5.974;2023-09-19T06:02:54;9.32;;;2.78;;
59756;SDS011;45631;51.962;5.974;2023-09-19T06:05:24;7.95;;;2.42;;
59756;SDS011;45631;51.962;5.974;2023-09-19T06:07:55;12.63;;;2.22;;
59756;SDS011;45631;51.962;5.974;2023-09-19T06:10:30;14.70;;;2.10;;
59756;SDS011;45631;51.962;5.974;2023-09-19T06:12:58;15.07;;;2.40;;
59756;SDS011;45631;51.962;5.974;2023-09-19T06:15:26;11.48;;;2.47;;
59756;SDS011;45631;51.962;5.974;2023-09-19T06:17:55;14.88;;;2.53;;
59756;SDS011;45631;51.962;5.974;2023-09-19T06:20:24;11.00;;;2.25;;
59756;SDS011;45631;51.962;5.974;2023-09-19T06:22:53;11.88;;;1.70;;
59756;SDS011;45631;51.962;5.974;2023-09-19T06:25:23;10.43;;;2.22;;
59756;SDS011;45631;51.962;5.974;2023-09-19T06:27:52;10.32;;;2.03;;
59756;SDS011;45631;51.962;5.974;2023-09-19T06:30:22;13.02;;;3.33;;
59756;SDS011;45631;51.962;5.974;2023-09-19T06:32:55;11.20;;;1.92;;
59756;SDS011;45631;51.962;5.974;2023-09-19T06:35:24;10.60;;;2.87;;
59756;SDS011;45631;51.962;5.974;2023-09-19T06:37:53;8.63;;;2.05;;
59756;SDS011;45631;51.962;5.974;2023-09-19T06:40:26;10.13;;;2.45;;
59756;SDS011;45631;51.962;5.974;2023-09-19T06:42:55;12.70;;;2.22;;
59756;SDS011;45631;51.962;5.974;2023-09-19T06:45:23;14.00;;;3.00;;
59756;SDS011;45631;51.962;5.974;2023-09-19T06:47:54;12.50;;;2.33;;
59756;SDS011;45631;51.962;5.974;2023-09-19T06:50:25;11.32;;;2.45;;
59756;SDS011;45631;51.962;5.974;2023-09-19T06:52:55;14.13;;;2.45;;
59756;SDS011;45631;51.962;5.974;2023-09-19T06:55:27;11.27;;;2.40;;
59756;SDS011;45631;51.962;5.974;2023-09-19T06:57:58;11.38;;;2.20;;
59756;SDS011;45631;51.962;5.974;2023-09-19T07:00:26;15.02;;;2.85;;
59756;SDS011;45631;51.962;5.974;2023-09-19T07:02:58;10.70;;;2.08;;
59756;SDS011;45631;51.962;5.974;2023-09-19T07:05:28;14.32;;;2.42;;
59756;SDS011;45631;51.962;5.974;2023-09-19T07:07:56;17.50;;;2.40;;
59756;SDS011;45631;51.962;5.974;2023-09-19T07:10:30;13.27;;;2.85;;
59756;SDS011;45631;51.962;5.974;2023-09-19T07:12:59;12.35;;;2.35;;
59756;SDS011;45631;51.962;5.974;2023-09-19T07:15:28;12.38;;;2.40;;
59756;SDS011;45631;51.962;5.974;2023-09-19T07:17:57;10.88;;;2.13;;
59756;SDS011;45631;51.962;5.974;2023-09-19T07:20:28;10.70;;;2.13;;
59756;SDS011;45631;51.962;5.974;2023-09-19T07:22:59;12.63;;;2.20;;
59756;SDS011;45631;51.962;5.974;2023-09-19T07:25:28;13.77;;;2.70;;
59756;SDS011;45631;51.962;5.974;2023-09-19T07:28:00;12.95;;;2.60;;
59756;SDS011;45631;51.962;5.974;2023-09-19T07:30:28;11.55;;;2.78;;
59756;SDS011;45631;51.962;5.974;2023-09-19T07:32:57;15.00;;;2.58;;
59756;SDS011;45631;51.962;5.974;2023-09-19T07:35:25;12.23;;;2.28;;
59756;SDS011;45631;51.962;5.974;2023-09-19T07:37:53;13.00;;;2.65;;
59756;SDS011;45631;51.962;5.974;2023-09-19T07:40:23;17.77;;;2.30;;
59756;SDS011;45631;51.962;5.974;2023-09-19T07:42:55;14.43;;;2.40;;
59756;SDS011;45631;51.962;5.974;2023-09-19T07:45:23;11.73;;;2.85;;
59756;SDS011;45631;51.962;5.974;2023-09-19T07:47:51;14.75;;;2.40;;
59756;SDS011;45631;51.962;5.974;2023-09-19T07:50:20;12.98;;;2.65;;
59756;SDS011;45631;51.962;5.974;2023-09-19T07:52:50;11.07;;;2.00;;
59756;SDS011;45631;51.962;5.974;2023-09-19T07:55:24;11.48;;;2.60;;
59756;SDS011;45631;51.962;5.974;2023-09-19T07:57:52;11.00;;;2.47;;
59756;SDS011;45631;51.962;5.974;2023-09-19T08:00:22;13.35;;;2.15;;
59756;SDS011;45631;51.962;5.974;2023-09-19T08:02:50;14.52;;;3.58;;
59756;SDS011;45631;51.962;5.974;2023-09-19T08:05:29;14.70;;;2.75;;
59756;SDS011;45631;51.962;5.974;2023-09-19T08:08:00;12.75;;;2.53;;
59756;SDS011;45631;51.962;5.974;2023-09-19T08:10:28;10.48;;;2.25;;
59756;SDS011;45631;51.962;5.974;2023-09-19T08:13:02;15.32;;;3.95;;
59756;SDS011;45631;51.962;5.974;2023-09-19T08:15:32;17.05;;;2.88;;
59756;SDS011;45631;51.962;5.974;2023-09-19T08:18:03;11.88;;;2.47;;
59756;SDS011;45631;51.962;5.974;2023-09-19T08:20:32;13.18;;;2.85;;
59756;SDS011;45631;51.962;5.974;2023-09-19T08:23:02;11.43;;;2.28;;
59756;SDS011;45631;51.962;5.974;2023-09-19T08:25:30;11.50;;;2.35;;
59756;SDS011;45631;51.962;5.974;2023-09-19T08:27:59;14.48;;;2.72;;
59756;SDS011;45631;51.962;5.974;2023-09-19T08:30:28;11.27;;;2.50;;
59756;SDS011;45631;51.962;5.974;2023-09-19T08:32:58;11.07;;;2.75;;
59756;SDS011;45631;51.962;5.974;2023-09-19T08:35:27;11.60;;;2.20;;
59756;SDS011;45631;51.962;5.974;2023-09-19T08:37:55;9.10;;;2.50;;
59756;SDS011;45631;51.962;5.974;2023-09-19T08:40:24;13.23;;;2.88;;
59756;SDS011;45631;51.962;5.974;2023-09-19T08:42:57;15.88;;;2.47;;
59756;SDS011;45631;51.962;5.974;2023-09-19T08:45:25;11.98;;;2.45;;
59756;SDS011;45631;51.962;5.974;2023-09-19T08:47:56;16.17;;;3.83;;
59756;SDS011;45631;51.962;5.974;2023-09-19T08:50:39;16.25;;;3.03;;
59756;SDS011;45631;51.962;5.974;2023-09-19T08:53:15;16.20;;;2.80;;
59756;SDS011;45631;51.962;5.974;2023-09-19T08:55:49;16.75;;;3.20;;
59756;SDS011;45631;51.962;5.974;2023-09-19T08:58:25;13.30;;;3.03;;
59756;SDS011;45631;51.962;5.974;2023-09-19T09:00:56;14.43;;;2.70;;
59756;SDS011;45631;51.962;5.974;2023-09-19T09:03:32;15.18;;;2.67;;
59756;SDS011;45631;51.962;5.974;2023-09-19T09:06:01;11.98;;;2.58;;
59756;SDS011;45631;51.962;5.974;2023-09-19T09:08:30;13.48;;;2.70;;
59756;SDS011;45631;51.962;5.974;2023-09-19T09:10:59;16.73;;;3.22;;
59756;SDS011;45631;51.962;5.974;2023-09-19T09:13:27;13.05;;;2.42;;
59756;SDS011;45631;51.962;5.974;2023-09-19T09:15:57;12.23;;;2.60;;
59756;SDS011;45631;51.962;5.974;2023-09-19T09:18:26;11.13;;;2.15;;
59756;SDS011;45631;51.962;5.974;2023-09-19T09:20:57;16.65;;;3.13;;
59756;SDS011;45631;51.962;5.974;2023-09-19T09:23:28;11.95;;;2.90;;
59756;SDS011;45631;51.962;5.974;2023-09-19T09:25:57;12.77;;;3.22;;
59756;SDS011;45631;51.962;5.974;2023-09-19T09:31:00;11.35;;;2.47;;
59756;SDS011;45631;51.962;5.974;2023-09-19T09:33:29;12.38;;;2.20;;
59756;SDS011;45631;51.962;5.974;2023-09-19T09:35:59;11.02;;;2.55;;
59756;SDS011;45631;51.962;5.974;2023-09-19T09:38:30;15.70;;;3.20;;
59756;SDS011;45631;51.962;5.974;2023-09-19T09:41:12;11.23;;;2.47;;
59756;SDS011;45631;51.962;5.974;2023-09-19T09:43:44;10.88;;;2.30;;
59756;SDS011;45631;51.962;5.974;2023-09-19T09:46:15;9.43;;;2.03;;
59756;SDS011;45631;51.962;5.974;2023-09-19T09:49:03;10.30;;;2.30;;
59756;SDS011;45631;51.962;5.974;2023-09-19T09:54:24;11.82;;;2.88;;
59756;SDS011;45631;51.962;5.974;2023-09-19T09:57:01;8.88;;;1.83;;
59756;SDS011;45631;51.962;5.974;2023-09-19T09:59:47;9.32;;;2.10;;
59756;SDS011;45631;51.962;5.974;2023-09-19T10:02:18;8.75;;;2.17;;
59756;SDS011;45631;51.962;5.974;2023-09-19T10:04:51;10.57;;;2.45;;
59756;SDS011;45631;51.962;5.974;2023-09-19T10:07:28;9.48;;;2.53;;
59756;SDS011;45631;51.962;5.974;2023-09-19T10:10:02;14.02;;;2.63;;
59756;SDS011;45631;51.962;5.974;2023-09-19T10:12:42;12.80;;;2.78;;
59756;SDS011;45631;51.962;5.974;2023-09-19T10:15:12;11.38;;;2.30;;
59756;SDS011;45631;51.962;5.974;2023-09-19T10:17:44;9.20;;;2.28;;
59756;SDS011;45631;51.962;5.974;2023-09-19T10:20:13;13.55;;;2.55;;
59756;SDS011;45631;51.962;5.974;2023-09-19T10:23:00;14.27;;;2.58;;
59756;SDS011;45631;51.962;5.974;2023-09-19T10:25:36;11.18;;;2.33;;
59756;SDS011;45631;51.962;5.974;2023-09-19T10:28:06;10.25;;;2.65;;
59756;SDS011;45631;51.962;5.974;2023-09-19T10:30:40;11.40;;;2.33;;
59756;SDS011;45631;51.962;5.974;2023-09-19T10:33:12;13.95;;;2.75;;
59756;SDS011;45631;51.962;5.974;2023-09-19T10:35:42;9.20;;;2.08;;
59756;SDS011;45631;51.962;5.974;2023-09-19T10:38:14;11.38;;;2.53;;
59756;SDS011;45631;51.962;5.974;2023-09-19T10:40:48;8.75;;;2.70;;
59756;SDS011;45631;51.962;5.974;2023-09-19T10:43:17;9.03;;;2.23;;
59756;SDS011;45631;51.962;5.974;2023-09-19T10:45:48;9.10;;;2.38;;
59756;SDS011;45631;51.962;5.974;2023-09-19T10:48:19;9.90;;;2.10;;
59756;SDS011;45631;51.962;5.974;2023-09-19T10:50:55;15.02;;;2.42;;
59756;SDS011;45631;51.962;5.974;2023-09-19T10:53:40;10.98;;;2.40;;
59756;SDS011;45631;51.962;5.974;2023-09-19T10:56:16;11.15;;;2.55;;
59756;SDS011;45631;51.962;5.974;2023-09-19T10:58:49;13.02;;;2.80;;
59756;SDS011;45631;51.962;5.974;2023-09-19T11:01:18;14.35;;;2.38;;
59756;SDS011;45631;51.962;5.974;2023-09-19T11:03:48;11.35;;;2.15;;
59756;SDS011;45631;51.962;5.974;2023-09-19T11:06:59;9.30;;;2.05;;
59756;SDS011;45631;51.962;5.974;2023-09-19T11:09:44;8.55;;;2.03;;
59756;SDS011;45631;51.962;5.974;2023-09-19T11:24:28;10.50;;;2.72;;
59756;SDS011;45631;51.962;5.974;2023-09-19T11:27:15;15.98;;;2.40;;
59756;SDS011;45631;51.962;5.974;2023-09-19T11:29:45;9.43;;;2.10;;
59756;SDS011;45631;51.962;5.974;2023-09-19T11:32:14;8.52;;;1.98;;
59756;SDS011;45631;51.962;5.974;2023-09-19T11:34:44;10.80;;;2.20;;
59756;SDS011;45631;51.962;5.974;2023-09-19T11:40:37;9.85;;;2.00;;
59756;SDS011;45631;51.962;5.974;2023-09-19T11:46:06;10.43;;;2.25;;
59756;SDS011;45631;51.962;5.974;2023-09-19T11:48:35;9.05;;;1.83;;
59756;SDS011;45631;51.962;5.974;2023-09-19T11:53:45;8.20;;;1.92;;
59756;SDS011;45631;51.962;5.974;2023-09-19T11:56:16;7.63;;;1.60;;
59756;SDS011;45631;51.962;5.974;2023-09-19T11:58:47;9.48;;;2.00;;
59756;SDS011;45631;51.962;5.974;2023-09-19T12:01:24;10.60;;;1.83;;
59756;SDS011;45631;51.962;5.974;2023-09-19T12:03:56;6.40;;;1.80;;
59756;SDS011;45631;51.962;5.974;2023-09-19T12:06:26;7.53;;;1.73;;
59756;SDS011;45631;51.962;5.974;2023-09-19T12:08:56;8.18;;;1.83;;
59756;SDS011;45631;51.962;5.974;2023-09-19T12:11:27;8.30;;;1.83;;
59756;SDS011;45631;51.962;5.974;2023-09-19T12:14:02;6.30;;;2.00;;
59756;SDS011;45631;51.962;5.974;2023-09-19T12:16:31;8.95;;;1.73;;
59756;SDS011;45631;51.962;5.974;2023-09-19T12:21:59;8.98;;;1.70;;
59756;SDS011;45631;51.962;5.974;2023-09-19T12:24:31;7.47;;;2.08;;
59756;SDS011;45631;51.962;5.974;2023-09-19T12:27:04;4.85;;;1.45;;
59756;SDS011;45631;51.962;5.974;2023-09-19T12:29:42;11.02;;;1.90;;
59756;SDS011;45631;51.962;5.974;2023-09-19T12:32:12;9.20;;;1.40;;
59756;SDS011;45631;51.962;5.974;2023-09-19T12:34:50;8.73;;;1.70;;
59756;SDS011;45631;51.962;5.974;2023-09-19T12:37:19;7.28;;;1.50;;
59756;SDS011;45631;51.962;5.974;2023-09-19T12:39:50;15.48;;;1.75;;
59756;SDS011;45631;51.962;5.974;2023-09-19T12:42:20;6.38;;;1.35;;
59756;SDS011;45631;51.962;5.974;2023-09-19T12:44:53;9.17;;;1.70;;
59756;SDS011;45631;51.962;5.974;2023-09-19T12:47:23;8.75;;;1.77;;
59756;SDS011;45631;51.962;5.974;2023-09-19T12:50:08;8.27;;;1.60;;
59756;SDS011;45631;51.962;5.974;2023-09-19T12:52:41;8.45;;;1.60;;
59756;SDS011;45631;51.962;5.974;2023-09-19T12:55:20;8.20;;;1.73;;
59756;SDS011;45631;51.962;5.974;2023-09-19T12:58:00;8.48;;;1.70;;
59756;SDS011;45631;51.962;5.974;2023-09-19T13:00:39;7.60;;;1.58;;
59756;SDS011;45631;51.962;5.974;2023-09-19T13:03:17;8.52;;;1.30;;
59756;SDS011;45631;51.962;5.974;2023-09-19T13:05:52;7.63;;;1.20;;
59756;SDS011;45631;51.962;5.974;2023-09-19T13:08:25;5.93;;;1.00;;
59756;SDS011;45631;51.962;5.974;2023-09-19T13:13:48;6.78;;;1.33;;
59756;SDS011;45631;51.962;5.974;2023-09-19T13:16:23;3.83;;;1.40;;
59756;SDS011;45631;51.962;5.974;2023-09-19T13:18:52;5.57;;;1.20;;
59756;SDS011;45631;51.962;5.974;2023-09-19T13:21:27;6.53;;;1.30;;
59756;SDS011;45631;51.962;5.974;2023-09-19T13:26:45;5.88;;;1.15;;
59756;SDS011;45631;51.962;5.974;2023-09-19T13:29:13;6.43;;;1.10;;
59756;SDS011;45631;51.962;5.974;2023-09-19T13:31:49;5.72;;;1.30;;
59756;SDS011;45631;51.962;5.974;2023-09-19T13:34:19;7.28;;;1.40;;
59756;SDS011;45631;51.962;5.974;2023-09-19T13:36:48;6.40;;;1.10;;
59756;SDS011;45631;51.962;5.974;2023-09-19T13:39:17;6.22;;;1.27;;
59756;SDS011;45631;51.962;5.974;2023-09-19T13:41:45;4.82;;;1.10;;
59756;SDS011;45631;51.962;5.974;2023-09-19T13:44:15;6.45;;;1.17;;
59756;SDS011;45631;51.962;5.974;2023-09-19T13:46:44;5.32;;;1.20;;
59756;SDS011;45631;51.962;5.974;2023-09-19T13:49:15;6.25;;;1.13;;
59756;SDS011;45631;51.962;5.974;2023-09-19T13:51:47;5.35;;;1.10;;
59756;SDS011;45631;51.962;5.974;2023-09-19T13:54:15;7.45;;;1.33;;
59756;SDS011;45631;51.962;5.974;2023-09-19T13:56:43;6.05;;;0.98;;
59756;SDS011;45631;51.962;5.974;2023-09-19T13:59:11;10.07;;;1.50;;
59756;SDS011;45631;51.962;5.974;2023-09-19T14:01:39;6.88;;;1.10;;
59756;SDS011;45631;51.962;5.974;2023-09-19T14:04:08;2.75;;;0.70;;
59756;SDS011;45631;51.962;5.974;2023-09-19T14:06:42;3.47;;;1.13;;
59756;SDS011;45631;51.962;5.974;2023-09-19T14:09:14;4.93;;;1.40;;
59756;SDS011;45631;51.962;5.974;2023-09-19T14:11:52;8.48;;;1.40;;
59756;SDS011;45631;51.962;5.974;2023-09-19T14:14:20;5.15;;;1.10;;
59756;SDS011;45631;51.962;5.974;2023-09-19T14:16:49;7.18;;;1.10;;
59756;SDS011;45631;51.962;5.974;2023-09-19T14:19:17;4.78;;;1.17;;
59756;SDS011;45631;51.962;5.974;2023-09-19T14:21:50;4.30;;;1.15;;
59756;SDS011;45631;51.962;5.974;2023-09-19T14:24:22;4.20;;;1.02;;
59756;SDS011;45631;51.962;5.974;2023-09-19T14:26:50;3.33;;;0.90;;
59756;SDS011;45631;51.962;5.974;2023-09-19T14:29:18;5.30;;;1.05;;
59756;SDS011;45631;51.962;5.974;2023-09-19T14:31:46;5.45;;;1.10;;
59756;SDS011;45631;51.962;5.974;2023-09-19T14:34:15;7.97;;;1.23;;
59756;SDS011;45631;51.962;5.974;2023-09-19T14:36:43;6.32;;;1.00;;
59756;SDS011;45631;51.962;5.974;2023-09-19T14:39:15;5.25;;;1.23;;
59756;SDS011;45631;51.962;5.974;2023-09-19T14:41:44;7.65;;;1.10;;
59756;SDS011;45631;51.962;5.974;2023-09-19T14:44:15;7.95;;;1.17;;
59756;SDS011;45631;51.962;5.974;2023-09-19T14:46:43;5.03;;;1.20;;
59756;SDS011;45631;51.962;5.974;2023-09-19T14:49:11;6.05;;;1.17;;
59756;SDS011;45631;51.962;5.974;2023-09-19T14:51:42;5.38;;;1.33;;
59756;SDS011;45631;51.962;5.974;2023-09-19T14:54:11;5.65;;;1.23;;
59756;SDS011;45631;51.962;5.974;2023-09-19T14:56:41;4.35;;;1.08;;
59756;SDS011;45631;51.962;5.974;2023-09-19T14:59:10;5.40;;;1.42;;
59756;SDS011;45631;51.962;5.974;2023-09-19T15:01:39;3.78;;;1.13;;
59756;SDS011;45631;51.962;5.974;2023-09-19T15:04:07;7.85;;;1.30;;
59756;SDS011;45631;51.962;5.974;2023-09-19T15:06:36;4.97;;;1.20;;
59756;SDS011;45631;51.962;5.974;2023-09-19T15:09:04;6.03;;;1.27;;
59756;SDS011;45631;51.962;5.974;2023-09-19T15:11:35;6.13;;;1.40;;
59756;SDS011;45631;51.962;5.974;2023-09-19T15:14:04;6.25;;;1.13;;
59756;SDS011;45631;51.962;5.974;2023-09-19T15:16:33;7.80;;;1.45;;
59756;SDS011;45631;51.962;5.974;2023-09-19T15:19:02;4.03;;;1.20;;
59756;SDS011;45631;51.962;5.974;2023-09-19T15:21:31;4.97;;;1.35;;
59756;SDS011;45631;51.962;5.974;2023-09-19T15:23:59;3.63;;;1.08;;
59756;SDS011;45631;51.962;5.974;2023-09-19T15:26:27;5.75;;;1.33;;
59756;SDS011;45631;51.962;5.974;2023-09-19T15:28:56;4.57;;;1.40;;
59756;SDS011;45631;51.962;5.974;2023-09-19T15:31:26;6.40;;;1.20;;
59756;SDS011;45631;51.962;5.974;2023-09-19T15:33:54;5.63;;;1.40;;
59756;SDS011;45631;51.962;5.974;2023-09-19T15:36:22;6.43;;;1.83;;
59756;SDS011;45631;51.962;5.974;2023-09-19T15:38:59;3.78;;;1.00;;